sensor_id;sensor_type;location;lat;lon;timestamp;temperature;humidity
28069;DHT22;15382;47.578;8.086;2022-09-16T00:03:34;14.30;99.90
28069;DHT22;15382;47.578;8.086;2022-09-16T00:13:35;14.30;99.90
28069;DHT22;15382;47.578;8.086;2022-09-16T00:23:36;14.30;99.90
28069;DHT22;15382;47.578;8.086;2022-09-16T00:33:37;14.40;99.90
28069;DHT22;15382;47.578;8.086;2022-09-16T00:43:59;14.50;99.90
28069;DHT22;15382;47.578;8.086;2022-09-16T00:54:01;14.50;99.90
28069;DHT22;15382;47.578;8.086;2022-09-16T01:04:07;14.20;99.90
28069;DHT22;15382;47.578;8.086;2022-09-16T01:14:09;14.20;99.90
28069;DHT22;15382;47.578;8.086;2022-09-16T01:24:53;14.20;99.90
28069;DHT22;15382;47.578;8.086;2022-09-16T01:46:05;14.40;99.90
28069;DHT22;15382;47.578;8.086;2022-09-16T02:06:21;14.50;99.90
28069;DHT22;15382;47.578;8.086;2022-09-16T02:17:16;14.50;99.90
28069;DHT22;15382;47.578;8.086;2022-09-16T02:27:01;14.60;99.90
28069;DHT22;15382;47.578;8.086;2022-09-16T02:37:10;14.60;99.90
28069;DHT22;15382;47.578;8.086;2022-09-16T02:57:23;14.40;99.90
28069;DHT22;15382;47.578;8.086;2022-09-16T03:07:24;14.30;99.90
28069;DHT22;15382;47.578;8.086;2022-09-16T03:17:46;14.10;99.90
28069;DHT22;15382;47.578;8.086;2022-09-16T03:37:58;14.10;99.90
28069;DHT22;15382;47.578;8.086;2022-09-16T03:48:00;14.10;99.90
28069;DHT22;15382;47.578;8.086;2022-09-16T03:58:01;14.00;99.90
28069;DHT22;15382;47.578;8.086;2022-09-16T04:08:01;14.20;99.90
28069;DHT22;15382;47.578;8.086;2022-09-16T04:18:02;14.30;99.90
28069;DHT22;15382;47.578;8.086;2022-09-16T04:28:03;14.10;99.90
28069;DHT22;15382;47.578;8.086;2022-09-16T04:38:04;14.20;99.90
28069;DHT22;15382;47.578;8.086;2022-09-16T04:48:05;14.30;99.90
28069;DHT22;15382;47.578;8.086;2022-09-16T04:58:05;14.30;99.90
28069;DHT22;15382;47.578;8.086;2022-09-16T05:08:06;14.40;99.90
28069;DHT22;15382;47.578;8.086;2022-09-16T05:18:07;14.40;99.90
28069;DHT22;15382;47.578;8.086;2022-09-16T05:28:08;14.40;99.90
28069;DHT22;15382;47.578;8.086;2022-09-16T05:38:08;14.50;99.90
28069;DHT22;15382;47.578;8.086;2022-09-16T05:48:09;14.50;99.90
28069;DHT22;15382;47.578;8.086;2022-09-16T05:58:10;14.40;99.90
28069;DHT22;15382;47.578;8.086;2022-09-16T06:08:11;14.30;99.90
28069;DHT22;15382;47.578;8.086;2022-09-16T06:18:12;14.20;99.90
28069;DHT22;15382;47.578;8.086;2022-09-16T06:28:15;14.20;99.90
28069;DHT22;15382;47.578;8.086;2022-09-16T06:38:16;14.20;99.90
28069;DHT22;15382;47.578;8.086;2022-09-16T06:48:17;14.20;99.90
28069;DHT22;15382;47.578;8.086;2022-09-16T06:58:17;14.20;99.90
28069;DHT22;15382;47.578;8.086;2022-09-16T07:08:18;14.70;99.90
28069;DHT22;15382;47.578;8.086;2022-09-16T07:18:19;15.40;99.90
28069;DHT22;15382;47.578;8.086;2022-09-16T07:28:20;15.70;99.90
28069;DHT22;15382;47.578;8.086;2022-09-16T07:38:20;15.60;99.90
28069;DHT22;15382;47.578;8.086;2022-09-16T07:48:21;15.60;99.90
28069;DHT22;15382;47.578;8.086;2022-09-16T07:58:22;15.50;99.90
28069;DHT22;15382;47.578;8.086;2022-09-16T08:08:23;15.30;99.90
28069;DHT22;15382;47.578;8.086;2022-09-16T08:18:24;15.30;99.90
28069;DHT22;15382;47.578;8.086;2022-09-16T08:28:26;15.50;99.90
28069;DHT22;15382;47.578;8.086;2022-09-16T08:38:27;15.40;99.90
28069;DHT22;15382;47.578;8.086;2022-09-16T08:48:40;15.80;99.90
28069;DHT22;15382;47.578;8.086;2022-09-16T08:58:47;16.30;99.90
28069;DHT22;15382;47.578;8.086;2022-09-16T09:09:25;15.80;99.90
28069;DHT22;15382;47.578;8.086;2022-09-16T09:19:34;17.70;99.90
28069;DHT22;15382;47.578;8.086;2022-09-16T09:30:00;16.80;99.90
28069;DHT22;15382;47.578;8.086;2022-09-16T09:50:28;19.00;99.90
28069;DHT22;15382;47.578;8.086;2022-09-16T10:00:30;19.20;99.90
28069;DHT22;15382;47.578;8.086;2022-09-16T10:10:32;18.20;99.90
28069;DHT22;15382;47.578;8.086;2022-09-16T10:20:36;17.30;99.90
28069;DHT22;15382;47.578;8.086;2022-09-16T10:30:46;17.00;99.90
28069;DHT22;15382;47.578;8.086;2022-09-16T10:40:55;16.90;99.90
28069;DHT22;15382;47.578;8.086;2022-09-16T10:50:59;16.90;99.90
28069;DHT22;15382;47.578;8.086;2022-09-16T11:01:20;18.60;99.90
28069;DHT22;15382;47.578;8.086;2022-09-16T11:32:43;18.00;99.90
28069;DHT22;15382;47.578;8.086;2022-09-16T12:03:58;19.60;99.90
28069;DHT22;15382;47.578;8.086;2022-09-16T12:24:36;21.00;99.90
28069;DHT22;15382;47.578;8.086;2022-09-16T12:34:46;19.20;99.90
28069;DHT22;15382;47.578;8.086;2022-09-16T13:25:29;17.50;99.90
28069;DHT22;15382;47.578;8.086;2022-09-16T14:17:33;17.20;99.90
28069;DHT22;15382;47.578;8.086;2022-09-16T14:27:36;17.10;99.90
28069;DHT22;15382;47.578;8.086;2022-09-16T14:37:39;16.90;99.90
28069;DHT22;15382;47.578;8.086;2022-09-16T14:47:40;17.00;99.90
28069;DHT22;15382;47.578;8.086;2022-09-16T14:57:40;16.40;99.90
28069;DHT22;15382;47.578;8.086;2022-09-16T15:07:42;18.00;99.90
28069;DHT22;15382;47.578;8.086;2022-09-16T15:17:54;17.40;99.90
28069;DHT22;15382;47.578;8.086;2022-09-16T15:28:16;16.80;99.90
28069;DHT22;15382;47.578;8.086;2022-09-16T15:38:21;16.60;99.90
28069;DHT22;15382;47.578;8.086;2022-09-16T15:48:24;15.40;99.90
28069;DHT22;15382;47.578;8.086;2022-09-16T16:08:43;15.20;99.90
28069;DHT22;15382;47.578;8.086;2022-09-16T16:18:44;15.30;99.90
28069;DHT22;15382;47.578;8.086;2022-09-16T16:28:45;14.80;99.90
28069;DHT22;15382;47.578;8.086;2022-09-16T16:38:46;14.80;99.90
28069;DHT22;15382;47.578;8.086;2022-09-16T16:48:47;14.40;99.90
28069;DHT22;15382;47.578;8.086;2022-09-16T16:58:48;14.30;99.90
28069;DHT22;15382;47.578;8.086;2022-09-16T17:08:49;13.80;99.90
28069;DHT22;15382;47.578;8.086;2022-09-16T17:18:50;13.50;99.90
28069;DHT22;15382;47.578;8.086;2022-09-16T17:28:52;13.30;99.90
28069;DHT22;15382;47.578;8.086;2022-09-16T17:38:56;13.20;99.90
28069;DHT22;15382;47.578;8.086;2022-09-16T17:49:12;13.10;99.90
28069;DHT22;15382;47.578;8.086;2022-09-16T17:59:15;13.00;99.90
28069;DHT22;15382;47.578;8.086;2022-09-16T18:09:16;12.80;99.90
28069;DHT22;15382;47.578;8.086;2022-09-16T18:19:17;12.80;99.90
28069;DHT22;15382;47.578;8.086;2022-09-16T18:29:18;12.80;99.90
28069;DHT22;15382;47.578;8.086;2022-09-16T18:39:19;12.70;99.90
28069;DHT22;15382;47.578;8.086;2022-09-16T18:49:20;12.70;99.90
28069;DHT22;15382;47.578;8.086;2022-09-16T18:59:28;12.60;99.90
28069;DHT22;15382;47.578;8.086;2022-09-16T19:09:29;12.60;99.90
28069;DHT22;15382;47.578;8.086;2022-09-16T19:19:30;12.50;99.90
28069;DHT22;15382;47.578;8.086;2022-09-16T19:29:31;12.40;99.90
28069;DHT22;15382;47.578;8.086;2022-09-16T19:39:32;12.10;99.90
28069;DHT22;15382;47.578;8.086;2022-09-16T19:49:33;12.00;99.90
28069;DHT22;15382;47.578;8.086;2022-09-16T19:59:34;12.00;99.90
28069;DHT22;15382;47.578;8.086;2022-09-16T20:09:35;12.00;99.90
28069;DHT22;15382;47.578;8.086;2022-09-16T20:19:35;11.90;99.90
28069;DHT22;15382;47.578;8.086;2022-09-16T20:29:36;11.90;99.90
28069;DHT22;15382;47.578;8.086;2022-09-16T20:39:37;11.90;99.90
28069;DHT22;15382;47.578;8.086;2022-09-16T20:49:38;12.00;99.90
28069;DHT22;15382;47.578;8.086;2022-09-16T20:59:38;12.00;99.90
28069;DHT22;15382;47.578;8.086;2022-09-16T21:09:39;11.70;99.90
28069;DHT22;15382;47.578;8.086;2022-09-16T21:19:40;11.40;99.90
28069;DHT22;15382;47.578;8.086;2022-09-16T21:29:41;11.20;99.90
28069;DHT22;15382;47.578;8.086;2022-09-16T21:39:42;11.20;99.90
28069;DHT22;15382;47.578;8.086;2022-09-16T21:49:43;11.00;99.90
28069;DHT22;15382;47.578;8.086;2022-09-16T21:59:44;11.00;99.90
28069;DHT22;15382;47.578;8.086;2022-09-16T22:09:45;10.90;99.90
28069;DHT22;15382;47.578;8.086;2022-09-16T22:19:46;10.80;99.90
28069;DHT22;15382;47.578;8.086;2022-09-16T22:29:47;10.80;99.90
28069;DHT22;15382;47.578;8.086;2022-09-16T22:39:47;10.60;99.90
28069;DHT22;15382;47.578;8.086;2022-09-16T22:49:48;10.60;99.90
28069;DHT22;15382;47.578;8.086;2022-09-16T22:59:49;10.60;99.90
28069;DHT22;15382;47.578;8.086;2022-09-16T23:09:50;10.70;99.90
28069;DHT22;15382;47.578;8.086;2022-09-16T23:19:51;10.60;99.90
28069;DHT22;15382;47.578;8.086;2022-09-16T23:29:52;10.60;99.90
28069;DHT22;15382;47.578;8.086;2022-09-16T23:39:53;10.70;99.90
28069;DHT22;15382;47.578;8.086;2022-09-16T23:49:54;10.60;99.90
28069;DHT22;15382;47.578;8.086;2022-09-16T23:59:54;10.50;99.90
